Time;durP1;ratioP1;P1;durP2;ratioP2;P2;SDS_P1;SDS_P2;PMS_P1;PMS_P2;Temp;Humidity;BMP_temperature;BMP_pressure;BME280_temperature;BME280_humidity;BME280_pressure;Samples;Min_cycle;Max_cycle;Signal;HPM_P1;HPM_P2
2021/12/05 00:19:16;;;;;;;16.92;4.93;;;;;;;2.63;87.87;99764.34;4989078;28;20041;-63
2021/12/05 00:21:50;;;;;;;11.90;4.10;;;;;;;2.63;88.31;99766.91;4991192;28;20062;-63
2021/12/05 00:24:19;;;;;;;15.45;4.60;;;;;;;2.64;87.74;99766.00;4985762;28;20406;-65
2021/12/05 00:27:00;;;;;;;13.45;4.18;;;;;;;2.63;87.77;99764.34;4991201;28;20030;-63
2021/12/05 00:29:50;;;;;;;15.52;4.63;;;;;;;2.62;87.50;99772.94;4971882;28;20026;-63
2021/12/05 00:32:20;;;;;;;15.27;4.40;;;;;;;2.60;87.63;99761.19;4989295;28;20121;-63
2021/12/05 00:35:33;;;;;;;13.93;4.50;;;;;;;2.60;87.72;99774.81;4962314;28;20042;-63
2021/12/05 01:02:10;;;;;;;13.30;4.68;;;;;;;2.40;88.12;99773.53;4990742;28;20041;-63
2021/12/05 01:09:39;;;;;;;13.18;4.40;;;;;;;2.37;87.95;99778.03;4990851;28;20495;-63
2021/12/05 01:14:37;;;;;;;16.20;4.97;;;;;;;2.36;88.07;99776.41;4989770;28;20081;-63
2021/12/05 01:17:04;;;;;;;15.15;4.97;;;;;;;2.35;88.03;99782.41;4982793;28;20054;-63
2021/12/05 01:19:31;;;;;;;17.02;4.90;;;;;;;2.28;88.13;99773.50;4990043;28;20550;-64
2021/12/05 01:22:00;;;;;;;17.30;4.82;;;;;;;2.28;87.98;99778.59;4980744;28;20030;-63
2021/12/05 01:52:39;;;;;;;17.95;5.57;;;;;;;1.99;88.85;99773.59;4994087;28;20458;-64
2021/12/05 02:33:44;;;;;;;15.05;5.65;;;;;;;1.74;89.47;99763.28;4992027;28;20042;-63
2021/12/05 02:41:27;;;;;;;17.17;5.68;;;;;;;1.74;90.16;99758.16;4993624;28;20038;-63
2021/12/05 02:44:01;;;;;;;15.30;5.35;;;;;;;1.70;89.70;99754.16;4991979;28;20042;-69
2021/12/05 02:46:27;;;;;;;16.67;5.20;;;;;;;1.71;89.94;99753.22;4992349;28;20026;-63
2021/12/05 02:49:02;;;;;;;15.65;5.00;;;;;;;1.72;90.45;99754.88;4992214;28;20049;-63
2021/12/05 02:51:29;;;;;;;16.42;4.95;;;;;;;1.73;90.24;99746.31;4991748;28;20041;-64
2021/12/05 02:56:53;;;;;;;17.35;5.38;;;;;;;1.75;90.12;99755.50;4979230;28;20034;-63
2021/12/05 02:59:40;;;;;;;12.97;4.73;;;;;;;1.78;90.66;99754.50;4968136;28;20499;-64
2021/12/05 03:02:13;;;;;;;16.80;5.30;;;;;;;1.78;90.58;99754.50;4985958;28;20506;-63
2021/12/05 03:04:43;;;;;;;14.48;4.72;;;;;;;1.78;90.45;99759.63;4992365;28;20034;-64
2021/12/05 03:07:10;;;;;;;15.60;4.75;;;;;;;1.79;90.84;99761.25;4992908;28;20081;-63
2021/12/05 03:09:38;;;;;;;16.38;4.75;;;;;;;1.83;90.27;99755.03;4989944;28;20027;-63
2021/12/05 03:12:05;;;;;;;18.17;4.83;;;;;;;1.84;90.22;99754.94;4987137;28;20120;-63
2021/12/05 03:14:31;;;;;;;15.77;5.43;;;;;;;1.85;90.20;99750.66;4990457;28;20285;-63
2021/12/05 03:16:56;;;;;;;15.13;5.15;;;;;;;1.89;90.79;99751.25;4983141;28;20046;-63
2021/12/05 03:19:22;;;;;;;13.00;4.68;;;;;;;1.90;90.73;99750.38;4991655;28;20041;-63
2021/12/05 03:21:50;;;;;;;16.30;4.57;;;;;;;1.89;90.79;99757.19;4982894;28;20034;-64
2021/12/05 03:24:17;;;;;;;15.65;4.50;;;;;;;1.89;90.91;99752.06;4992112;28;20034;-63
2021/12/05 03:26:48;;;;;;;13.88;4.63;;;;;;;1.90;90.70;99753.75;4992097;28;20137;-63
2021/12/05 03:29:16;;;;;;;13.65;5.13;;;;;;;1.87;90.77;99748.81;4989762;28;20392;-63
2021/12/05 03:31:43;;;;;;;14.63;4.80;;;;;;;1.87;91.01;99748.81;4991414;28;20471;-63
2021/12/05 03:34:11;;;;;;;15.60;4.72;;;;;;;1.94;90.92;99765.41;4991174;28;20034;-65
2021/12/05 03:36:39;;;;;;;19.77;5.10;;;;;;;1.91;90.48;99750.25;4990222;28;20150;-63
2021/12/05 03:39:07;;;;;;;16.90;5.15;;;;;;;1.93;90.48;99740.75;4977996;28;20121;-63
2021/12/05 03:41:33;;;;;;;15.10;5.03;;;;;;;1.93;90.70;99745.88;4992042;28;20072;-65
2021/12/05 03:43:59;;;;;;;13.15;4.47;;;;;;;1.91;90.71;99745.16;4985488;28;20031;-63
2021/12/05 03:46:26;;;;;;;13.13;4.72;;;;;;;1.92;90.82;99751.91;4991759;28;20146;-65
2021/12/05 03:48:57;;;;;;;12.90;4.75;;;;;;;1.93;91.01;99752.72;4991211;28;20475;-70
2021/12/05 03:51:24;;;;;;;13.88;4.85;;;;;;;1.95;91.08;99756.84;4990173;28;20041;-63
2021/12/05 03:53:50;;;;;;;15.27;4.95;;;;;;;1.94;90.77;99760.28;4991531;28;20022;-63
2021/12/05 03:56:16;;;;;;;13.65;5.38;;;;;;;1.96;90.67;99760.22;4969325;28;20023;-63
2021/12/05 03:58:43;;;;;;;13.95;5.15;;;;;;;1.93;90.65;99756.09;4990394;28;20109;-63
2021/12/05 04:01:10;;;;;;;16.52;5.32;;;;;;;1.96;91.21;99755.91;4991036;28;20065;-63
2021/12/05 04:03:37;;;;;;;15.30;5.07;;;;;;;1.97;91.27;99762.66;4990222;28;20101;-63
2021/12/05 04:06:05;;;;;;;13.50;5.78;;;;;;;1.96;90.85;99749.97;4991771;28;20158;-63
2021/12/05 04:08:30;;;;;;;13.13;5.37;;;;;;;2.00;90.75;99754.78;4989977;28;20042;-64
2021/12/05 04:11:00;;;;;;;14.05;5.40;;;;;;;1.98;91.19;99751.50;4988653;28;20041;-63
2021/12/05 04:13:26;;;;;;;16.33;6.38;;;;;;;2.01;91.14;99755.63;4991290;28;20023;-63
2021/12/05 04:15:56;;;;;;;14.35;6.03;;;;;;;2.03;91.16;99754.59;4988966;28;20089;-63
2021/12/05 04:18:22;;;;;;;14.82;5.53;;;;;;;2.05;91.33;99762.97;4988740;28;20105;-65
2021/12/05 04:20:50;;;;;;;10.32;5.75;;;;;;;2.07;91.01;99766.28;4972730;28;20443;-64
2021/12/05 04:23:16;;;;;;;14.02;6.05;;;;;;;2.06;91.02;99754.38;4990549;28;20027;-64
2021/12/05 04:25:42;;;;;;;14.05;6.20;;;;;;;2.09;91.38;99758.50;4990245;28;20030;-63
2021/12/05 04:28:09;;;;;;;12.68;6.20;;;;;;;2.11;91.28;99757.47;4989937;28;20129;-64
2021/12/05 04:30:36;;;;;;;13.48;6.28;;;;;;;2.10;91.27;99755.84;4991236;28;20371;-63
2021/12/05 04:33:02;;;;;;;13.23;6.50;;;;;;;2.12;91.37;99748.91;4989361;28;20692;-63
2021/12/05 04:35:28;;;;;;;15.93;6.35;;;;;;;2.12;91.50;99748.91;4969232;28;20031;-63
2021/12/05 04:37:53;;;;;;;12.30;5.95;;;;;;;2.13;91.39;99740.31;4990082;28;20045;-64
2021/12/05 04:40:19;;;;;;;13.10;6.35;;;;;;;2.19;91.91;99748.53;4990079;28;20042;-63
2021/12/05 04:42:44;;;;;;;14.27;6.78;;;;;;;2.19;91.22;99749.34;4991170;28;20082;-63
2021/12/05 04:45:18;;;;;;;13.00;6.55;;;;;;;2.19;91.16;99749.34;4990515;28;20034;-63
2021/12/05 04:47:44;;;;;;;17.70;10.02;;;;;;;2.21;91.40;99747.50;4989269;28;20038;-64
2021/12/05 04:50:11;;;;;;;13.60;7.80;;;;;;;2.22;91.31;99753.41;4990368;28;20041;-65
2021/12/05 04:52:37;;;;;;;13.00;6.50;;;;;;;2.23;91.54;99749.94;4972692;28;20113;-63
2021/12/05 04:55:05;;;;;;;13.93;6.63;;;;;;;2.22;91.49;99753.41;4984305;28;20090;-63
2021/12/05 04:57:31;;;;;;;15.02;6.28;;;;;;;2.22;91.58;99750.88;4989050;28;20038;-64
2021/12/05 04:59:56;;;;;;;12.95;6.32;;;;;;;2.23;91.38;99749.94;4989201;28;20034;-63
2021/12/05 05:02:22;;;;;;;11.65;6.25;;;;;;;2.25;91.64;99748.13;4989910;28;20057;-63
2021/12/05 05:04:49;;;;;;;9.90;6.10;;;;;;;2.25;91.82;99748.13;4990184;28;20082;-63
2021/12/05 05:07:23;;;;;;;11.88;6.00;;;;;;;2.26;91.82;99749.75;4973095;28;20132;-64
2021/12/05 05:09:51;;;;;;;12.48;5.93;;;;;;;2.28;91.48;99753.03;4990068;28;20525;-64
2021/12/05 05:12:17;;;;;;;13.67;5.90;;;;;;;2.28;91.88;99758.13;4990264;28;20026;-63
2021/12/05 05:14:43;;;;;;;11.40;5.68;;;;;;;2.28;91.77;99753.03;4989888;28;20030;-63
2021/12/05 05:17:09;;;;;;;11.57;5.55;;;;;;;2.28;91.62;99758.13;4990248;28;20449;-64
2021/12/05 05:19:41;;;;;;;13.80;5.13;;;;;;;2.26;92.07;99760.81;4971252;28;20093;-64
2021/12/05 05:23:01;;;;;;;11.90;5.50;;;;;;;2.29;91.58;99759.78;4993419;28;20019;-63
2021/12/05 05:25:40;;;;;;;;;;;;;;;2.40;91.49;99765.03;4983872;28;20050;-65
2021/12/05 05:30:44;;;;;;;10.18;4.80;;;;;;;2.31;91.87;99765.63;4993349;28;20038;-63
2021/12/05 05:51:39;;;;;;;8.40;4.25;;;;;;;2.35;91.34;99790.94;4991864;28;20122;-63
2021/12/05 05:54:04;;;;;;;10.35;6.07;;;;;;;2.34;91.57;99794.38;4975772;28;20117;-63
2021/12/05 05:56:31;;;;;;;9.68;5.47;;;;;;;2.34;91.94;99794.38;4993899;28;20470;-63
2021/12/05 05:59:07;;;;;;;8.20;4.35;;;;;;;2.34;92.02;99783.34;4984987;28;20049;-64
2021/12/05 06:04:02;;;;;;;;;;;;;;;2.44;91.68;99789.50;4993607;28;20041;-63
2021/12/05 06:06:30;;;;;;;8.50;4.63;;;;;;;2.38;91.67;99797.56;4987784;28;19917;-63
2021/12/05 06:08:56;;;;;;;8.25;4.10;;;;;;;2.35;91.23;99800.31;4992117;28;20129;-63
2021/12/05 06:11:22;;;;;;;8.20;4.13;;;;;;;2.36;91.35;99801.97;4992099;28;20128;-63
2021/12/05 06:13:47;;;;;;;7.63;4.00;;;;;;;2.35;91.49;99806.28;4993737;28;20482;-64
2021/12/05 06:16:14;;;;;;;7.45;4.28;;;;;;;2.35;91.18;99818.22;4988868;28;20054;-64
2021/12/05 06:18:40;;;;;;;6.78;3.80;;;;;;;2.29;91.47;99811.75;4993428;28;20030;-64
2021/12/05 06:21:08;;;;;;;7.60;4.28;;;;;;;2.36;91.48;99812.22;4991774;28;20481;-63
2021/12/05 06:23:35;;;;;;;6.07;3.75;;;;;;;2.36;91.89;99822.47;4992556;28;20030;-65
2021/12/05 06:26:02;;;;;;;8.90;4.30;;;;;;;2.34;91.54;99824.28;4992455;28;20026;-64
2021/12/05 06:28:41;;;;;;;6.97;3.97;;;;;;;2.32;91.53;99826.13;4992907;28;20045;-63
2021/12/05 06:31:43;;;;;;;6.47;3.60;;;;;;;2.34;91.31;99829.38;4973839;28;20337;-63
2021/12/05 06:42:35;;;;;;;5.95;3.60;;;;;;;2.29;91.33;99831.41;4992039;28;20111;-65
2021/12/05 06:46:01;;;;;;;6.40;3.70;;;;;;;2.26;91.23;99837.56;4968510;28;20122;-63
2021/12/05 06:47:50;;;;;;;4.78;3.47;;;;;;;2.30;91.18;99840.75;4982339;28;20038;-64
2021/12/05 06:50:16;;;;;;;6.13;3.60;;;;;;;2.30;90.94;99858.66;4992302;28;20018;-63
2021/12/05 06:52:43;;;;;;;5.18;3.55;;;;;;;2.30;91.35;99853.56;4992978;28;20045;-64
2021/12/05 06:55:08;;;;;;;5.53;3.60;;;;;;;2.31;91.16;99857.75;4981322;28;20030;-64
2021/12/05 06:57:34;;;;;;;13.95;8.52;;;;;;;2.31;91.36;99860.31;4990576;28;20033;-64
2021/12/05 07:00:00;;;;;;;7.22;4.35;;;;;;;2.30;91.05;99858.66;4992869;28;20527;-65
2021/12/05 07:02:25;;;;;;;6.32;3.95;;;;;;;2.28;91.22;99860.47;4991917;28;20031;-65
2021/12/05 07:07:41;;;;;;;6.82;3.65;;;;;;;2.30;91.51;99874.84;4944576;28;20069;-64
2021/12/05 07:10:08;;;;;;;5.95;3.95;;;;;;;2.29;91.13;99882.59;4993830;28;20033;-64
2021/12/05 07:21:00;;;;;;;6.80;4.32;;;;;;;2.29;91.56;99892.81;4990937;28;20037;-67
2021/12/05 07:23:40;;;;;;;7.13;4.50;;;;;;;2.27;91.79;99900.59;4991681;28;20126;-67
2021/12/05 07:26:44;;;;;;;6.45;4.45;;;;;;;2.28;91.96;99901.41;4972588;28;20065;-64
2021/12/05 07:42:40;;;;;;;6.82;5.38;;;;;;;2.33;91.65;99914.75;4991946;28;20073;-64
2021/12/05 07:45:10;;;;;;;7.20;5.43;;;;;;;2.35;91.33;99912.91;4973670;28;20046;-64
2021/12/05 07:47:38;;;;;;;7.22;5.20;;;;;;;2.34;91.47;99916.38;4973596;28;20034;-64
2021/12/05 07:50:08;;;;;;;6.93;5.07;;;;;;;2.37;91.68;99916.22;4985755;28;20074;-64
2021/12/05 07:52:37;;;;;;;7.75;5.65;;;;;;;2.35;91.37;99924.00;4991044;28;20034;-64
2021/12/05 07:55:13;;;;;;;7.93;5.75;;;;;;;2.37;91.44;99926.44;4991658;28;20033;-65
2021/12/05 08:16:31;;;;;;;7.82;6.18;;;;;;;2.45;92.08;99924.22;4987389;28;20072;-64
2021/12/05 08:18:56;;;;;;;8.48;6.35;;;;;;;2.46;91.98;99933.53;4996391;28;20025;-63
2021/12/05 08:21:22;;;;;;;10.27;6.68;;;;;;;2.45;92.37;99934.44;4993630;28;20375;-65
2021/12/05 08:23:49;;;;;;;8.23;6.70;;;;;;;2.48;92.04;99939.41;4991913;28;20117;-64
2021/12/05 08:26:23;;;;;;;8.77;6.80;;;;;;;2.46;91.83;99937.84;4994117;28;20030;-63
2021/12/05 08:31:27;;;;;;;9.68;7.80;;;;;;;2.56;92.42;99946.59;4992440;28;20114;-63
2021/12/05 08:42:30;;;;;;;10.23;8.10;;;;;;;2.61;91.94;99945.38;4991154;28;20386;-64
2021/12/05 08:45:34;;;;;;;8.90;7.93;;;;;;;2.65;91.42;99959.66;4989544;28;20089;-63
2021/12/05 09:21:22;;;;;;;8.52;7.10;;;;;;;2.88;91.14;100018.84;4954767;28;20061;-87
2021/12/05 10:03:06;;;;;;;8.00;7.18;;;;;;;2.96;91.42;100078.06;4993946;28;20045;-68
2021/12/05 10:11:13;;;;;;;8.68;7.78;;;;;;;3.01;91.12;100091.44;5010739;28;20030;-67
2021/12/05 10:13:37;;;;;;;8.73;7.38;;;;;;;3.01;91.36;100088.88;5008309;28;20042;-67
2021/12/05 10:16:28;;;;;;;8.88;7.47;;;;;;;3.03;91.31;100094.69;5008659;28;20030;-68
2021/12/05 10:40:36;;;;;;;8.82;7.18;;;;;;;3.13;91.04;100126.53;5011610;28;20025;-67
2021/12/05 10:43:10;;;;;;;9.18;7.55;;;;;;;3.12;91.30;100112.09;5009181;28;20034;-67
2021/12/05 10:45:39;;;;;;;8.80;7.90;;;;;;;3.12;91.20;100124.91;5008379;28;20188;-67
2021/12/05 10:48:19;;;;;;;9.20;7.90;;;;;;;3.13;91.44;100120.59;5011167;28;20076;-67
2021/12/05 10:50:46;;;;;;;9.68;8.20;;;;;;;3.17;91.23;100125.44;4993914;28;20026;-67
2021/12/05 10:53:20;;;;;;;9.35;8.45;;;;;;;3.19;91.28;100136.41;5012377;28;20028;-67
2021/12/05 10:56:10;;;;;;;10.00;9.00;;;;;;;3.22;91.18;100135.41;5010314;28;20041;-67
2021/12/05 10:58:45;;;;;;;10.00;9.00;;;;;;;3.20;91.26;100132.09;5002059;28;20041;-68
2021/12/05 11:01:24;;;;;;;11.80;10.70;;;;;;;3.22;91.11;100129.47;4994281;28;20037;-67
2021/12/05 11:03:53;;;;;;;11.35;10.15;;;;;;;3.20;91.10;100130.34;5006108;28;20027;-68
2021/12/05 11:06:30;;;;;;;12.23;11.00;;;;;;;3.23;91.24;100133.66;4995607;28;20030;-67
2021/12/05 11:08:59;;;;;;;12.20;11.00;;;;;;;3.22;91.00;100129.47;5007679;28;20037;-68
2021/12/05 11:11:25;;;;;;;;;;;;;;;3.36;91.20;100131.97;5012258;28;20112;-68
2021/12/05 11:13:51;;;;;;;14.20;12.43;;;;;;;3.26;91.76;100131.72;5002804;28;20465;-68
2021/12/05 11:16:43;;;;;;;15.52;14.02;;;;;;;3.29;91.31;100141.78;5008877;28;20120;-68
2021/12/05 11:19:23;;;;;;;14.40;13.05;;;;;;;3.27;91.15;100147.91;5005058;28;20331;-68
2021/12/05 11:22:00;;;;;;;14.68;13.38;;;;;;;3.24;91.05;100148.13;4977573;28;20057;-67
2021/12/05 11:24:39;;;;;;;16.42;14.82;;;;;;;3.26;90.95;100151.38;4995361;28;20032;-66
2021/12/05 11:27:10;;;;;;;14.23;12.88;;;;;;;3.25;90.93;100152.31;5006832;28;20026;-66
2021/12/05 11:29:41;;;;;;;13.65;12.35;;;;;;;3.24;90.85;100163.50;4988239;28;20077;-67
2021/12/05 11:32:09;;;;;;;13.82;12.25;;;;;;;3.26;90.46;100151.38;5002044;28;20042;-67
2021/12/05 11:34:34;;;;;;;12.25;11.10;;;;;;;3.27;90.37;100163.28;5004157;28;20026;-68
2021/12/05 11:37:00;;;;;;;13.48;12.07;;;;;;;3.27;90.96;100168.41;5011853;28;20350;-67
2021/12/05 11:39:25;;;;;;;12.48;11.18;;;;;;;3.29;91.11;100166.59;5011245;28;20474;-67
2021/12/05 11:41:51;;;;;;;13.00;11.68;;;;;;;3.29;90.49;100171.72;5009167;28;20409;-67
2021/12/05 11:44:22;;;;;;;14.43;11.95;;;;;;;3.31;90.55;100168.13;4999596;28;20037;-68
2021/12/05 11:46:48;;;;;;;13.85;12.55;;;;;;;3.32;90.88;100166.38;5009220;28;20121;-68
2021/12/05 11:49:21;;;;;;;14.10;12.80;;;;;;;3.33;90.63;100168.06;5005048;28;20070;-68
2021/12/05 11:52:08;;;;;;;14.05;12.85;;;;;;;3.32;90.21;100174.06;4986835;28;20386;-67
2021/12/05 11:54:38;;;;;;;14.82;13.48;;;;;;;3.37;90.45;100179.75;5011545;28;20486;-67
2021/12/05 11:57:11;;;;;;;14.57;13.25;;;;;;;3.36;90.28;100178.91;5007928;28;20454;-66
2021/12/05 11:59:44;;;;;;;13.75;12.35;;;;;;;3.39;90.62;100176.19;5011221;28;20105;-67
2021/12/05 12:02:14;;;;;;;12.90;11.60;;;;;;;3.41;90.42;100181.22;5011028;28;20525;-67
2021/12/05 12:04:51;;;;;;;11.55;10.35;;;;;;;3.44;90.40;100181.00;4991306;28;20026;-67
2021/12/05 12:07:19;;;;;;;11.27;10.20;;;;;;;3.46;90.27;100197.13;5000037;28;20034;-67
2021/12/05 12:09:47;;;;;;;10.38;9.38;;;;;;;3.46;90.14;100195.38;4997134;28;20026;-69
2021/12/05 12:12:14;;;;;;;10.05;8.20;;;;;;;3.49;89.85;100188.41;4998380;28;20133;-68
2021/12/05 12:14:40;;;;;;;9.90;8.57;;;;;;;3.48;89.46;100192.72;4994124;28;20034;-67
2021/12/05 12:17:12;;;;;;;9.18;7.57;;;;;;;3.47;89.33;100196.22;5008697;28;20030;-67
2021/12/05 12:19:37;;;;;;;8.98;7.97;;;;;;;3.50;89.70;100190.91;5009046;28;20149;-75
2021/12/05 12:22:04;;;;;;;8.90;8.00;;;;;;;3.54;89.66;100197.47;5008721;28;20037;-74
2021/12/05 12:24:31;;;;;;;9.13;8.18;;;;;;;3.54;88.73;100201.78;4997827;28;20100;-69
2021/12/05 12:26:56;;;;;;;10.07;8.65;;;;;;;3.55;89.05;100204.22;5009939;28;20075;-69
2021/12/05 12:29:23;;;;;;;10.50;9.40;;;;;;;3.54;89.31;100202.59;4990394;28;20037;-68
2021/12/05 12:32:22;;;;;;;;;;;;;;;;;;;;;
2021/12/05 12:35:43;;;;;;;;;;;;;;;;;;;;;
2021/12/05 12:41:47;;;;;;;;;;;;;;;;;;;;;
2021/12/05 12:44:13;;;;;;;11.10;10.10;;;;;;;3.57;89.03;100212.66;5015692;23;20050;-63
2021/12/05 12:49:16;;;;;;;12.02;10.85;;;;;;;3.59;89.24;100221.06;5162875;23;20098;-68
2021/12/05 12:51:50;;;;;;;11.88;10.77;;;;;;;3.53;89.09;100221.47;4969817;28;20031;-69
2021/12/05 12:54:17;;;;;;;11.57;10.48;;;;;;;3.60;89.56;100227.84;4946992;28;20069;-70
2021/12/05 13:00:15;;;;;;;13.38;12.15;;;;;;;3.60;88.71;100230.41;4920835;28;20467;-69
2021/12/05 13:12:09;;;;;;;;;;;;;;;;;;;;;
2021/12/05 13:18:15;;;;;;;15.40;13.90;;;;;;;3.69;88.52;100263.19;4953007;28;20092;-83
2021/12/05 13:21:01;;;;;;;14.80;13.40;;;;;;;3.72;89.19;100255.28;5003043;28;20045;-83
2021/12/05 13:23:40;;;;;;;14.32;12.98;;;;;;;3.70;88.83;100259.69;4997619;28;20076;-83
2021/12/05 13:26:30;;;;;;;15.27;13.75;;;;;;;3.70;88.53;100256.31;4986115;28;20038;-83
2021/12/05 13:29:20;;;;;;;15.35;13.75;;;;;;;3.56;89.13;100226.41;4990680;28;20121;-80
2021/12/05 13:32:49;;;;;;;15.13;13.63;;;;;;;3.76;88.98;100255.94;4973605;28;20096;-80
2021/12/05 13:35:40;;;;;;;14.68;13.23;;;;;;;3.59;89.22;100236.47;4936523;29;20039;-83
2021/12/05 13:42:49;;;;;;;;;;;;;;;;;;;;;
2021/12/05 13:45:56;;;;;;;;;;;;;;;;;;;;;
2021/12/05 13:49:11;;;;;;;12.10;10.90;;;;;;;3.58;87.82;100247.66;4922450;29;20042;-83
2021/12/05 13:52:38;;;;;;;;;;;;;;;;;;;;;
2021/12/05 13:55:56;;;;;;;12.77;11.57;;;;;;;3.82;88.22;100290.63;5013662;28;20040;-82
2021/12/05 13:59:03;;;;;;;12.57;11.27;;;;;;;3.79;87.97;100298.53;4995269;28;20431;-82
2021/12/05 14:02:04;;;;;;;12.68;11.48;;;;;;;3.60;88.49;100263.75;4941468;28;20043;-82
2021/12/05 14:05:14;;;;;;;12.50;11.30;;;;;;;3.62;88.04;100267.06;5013276;28;20113;-82
2021/12/05 14:08:01;;;;;;;;;;;;;;;;;;;;;
2021/12/05 14:10:59;;;;;;;13.43;12.02;;;;;;;3.58;88.02;100273.28;5009786;28;20053;-82
2021/12/05 14:14:04;;;;;;;13.07;11.77;;;;;;;3.55;88.26;100276.03;4970038;28;20061;-83
2021/12/05 14:17:12;;;;;;;;;;;;;;;;;;;;;
2021/12/05 14:19:59;;;;;;;13.00;11.70;;;;;;;3.52;88.49;100286.47;4980473;28;20381;-83
2021/12/05 14:23:08;;;;;;;15.48;13.95;;;;;;;3.79;88.41;100334.44;4974931;28;20060;-81
2021/12/05 14:25:45;;;;;;;;;;;;;;;3.85;88.63;100328.94;4972085;28;20462;-81
2021/12/05 14:38:14;;;;;;;12.98;11.73;;;;;;;3.57;88.50;100338.31;4919615;29;20051;-82
2021/12/05 14:45:42;;;;;;;;;;;;;;;;;;;;;
2021/12/05 14:49:10;;;;;;;13.10;11.85;;;;;;;3.55;88.01;100358.06;4727740;30;20048;-82
2021/12/05 14:52:28;;;;;;;14.35;12.95;;;;;;;3.72;87.98;100391.22;4664715;30;20196;-82
2021/12/05 14:58:50;;;;;;;;;;;;;;;;;;;;;
2021/12/05 15:08:58;;;;;;;;;;;;;;;;;;;;;
2021/12/05 15:12:26;;;;;;;;;;;;;;;;;;;;;
2021/12/05 15:17:36;;;;;;;16.08;14.57;;;;;;;3.60;88.35;100448.38;4987284;28;20435;-67
2021/12/05 15:20:17;;;;;;;16.10;14.48;;;;;;;3.59;88.55;100451.84;4983427;28;20046;-69
2021/12/05 15:22:53;;;;;;;17.70;15.90;;;;;;;3.59;88.03;100456.97;4989321;28;20026;-67
2021/12/05 15:25:21;;;;;;;17.23;15.43;;;;;;;3.55;88.28;100450.38;4963326;28;20041;-67
2021/12/05 15:27:47;;;;;;;17.77;16.08;;;;;;;3.58;88.50;100465.59;4990997;28;20490;-68
2021/12/05 15:30:27;;;;;;;18.65;16.75;;;;;;;3.58;88.49;100469.91;4992233;28;20034;-67
2021/12/05 15:32:55;;;;;;;17.65;15.85;;;;;;;3.54;88.41;100469.25;4985989;28;20030;-67
2021/12/05 15:35:25;;;;;;;18.63;16.73;;;;;;;3.56;88.08;100482.00;4961370;28;20081;-68
2021/12/05 15:37:55;;;;;;;17.88;16.08;;;;;;;3.56;88.44;100493.06;4981730;28;20026;-69
2021/12/05 15:40:23;;;;;;;19.23;17.33;;;;;;;3.56;88.04;100493.06;4983055;28;20428;-68
2021/12/05 15:42:49;;;;;;;19.40;17.45;;;;;;;3.55;88.25;100493.97;4972107;28;20039;-68
2021/12/05 15:45:19;;;;;;;19.80;17.75;;;;;;;3.54;88.03;100504.31;4972791;28;20031;-67
2021/12/05 15:47:46;;;;;;;17.80;16.00;;;;;;;3.53;88.14;100495.81;4981910;28;20030;-68
2021/12/05 15:50:16;;;;;;;18.80;16.90;;;;;;;3.52;88.28;100512.09;4958297;28;20465;-70
2021/12/05 15:52:44;;;;;;;18.42;16.52;;;;;;;3.52;88.79;100512.09;4972629;28;20026;-71
2021/12/05 15:55:18;;;;;;;18.83;16.90;;;;;;;3.53;88.50;100518.06;4978865;28;20027;-68
2021/12/05 15:58:00;;;;;;;18.90;17.00;;;;;;;3.52;88.46;100517.22;4971955;28;20129;-68
2021/12/05 16:00:32;;;;;;;19.00;17.00;;;;;;;3.52;88.69;100519.78;4974061;28;20030;-69
2021/12/05 16:03:18;;;;;;;18.50;16.60;;;;;;;3.57;88.63;100529.78;4973401;28;20113;-67
2021/12/05 16:05:51;;;;;;;18.73;16.83;;;;;;;3.49;88.29;100525.09;4988591;28;20026;-68
2021/12/05 16:08:17;;;;;;;20.60;17.20;;;;;;;3.51;88.61;100528.41;4990494;28;20243;-69
2021/12/05 16:10:46;;;;;;;18.33;16.48;;;;;;;3.51;88.37;100536.09;4991114;28;20517;-66
2021/12/05 16:13:15;;;;;;;18.05;16.35;;;;;;;3.50;88.41;100529.31;4987254;28;20023;-68
2021/12/05 16:15:47;;;;;;;18.35;16.45;;;;;;;3.49;88.51;100537.91;4976854;28;20058;-67
2021/12/05 16:18:13;;;;;;;19.02;17.17;;;;;;;3.48;87.87;100536.25;5010792;28;20036;-68
2021/12/05 16:20:51;;;;;;;20.00;18.00;;;;;;;3.49;88.36;100548.16;5011155;28;20026;-67
2021/12/05 16:23:20;;;;;;;19.90;17.80;;;;;;;3.47;88.26;100561.06;5010800;28;20030;-68
2021/12/05 16:25:48;;;;;;;21.90;19.65;;;;;;;3.48;88.42;100567.03;5006381;28;20295;-67
2021/12/05 16:28:15;;;;;;;21.40;19.30;;;;;;;3.47;88.29;100566.19;5001988;28;20030;-66
2021/12/05 16:30:47;;;;;;;20.45;18.42;;;;;;;3.47;88.98;100575.63;5011191;28;20030;-67
2021/12/05 16:33:15;;;;;;;20.40;18.40;;;;;;;3.47;88.51;100580.75;5008053;28;20477;-67
2021/12/05 16:35:49;;;;;;;18.98;17.17;;;;;;;3.50;88.76;100580.59;5007002;28;20030;-71
2021/12/05 16:38:32;;;;;;;19.83;17.95;;;;;;;3.48;88.73;100587.53;5007315;28;20092;-67
2021/12/05 16:41:26;;;;;;;19.00;17.20;;;;;;;3.52;88.62;100588.19;5009656;28;20485;-66
2021/12/05 16:44:08;;;;;;;18.70;16.80;;;;;;;3.47;89.06;100585.88;5002256;28;20038;-67
2021/12/05 16:46:36;;;;;;;21.23;19.08;;;;;;;3.42;88.55;100582.75;4984367;28;20054;-67
2021/12/05 16:49:06;;;;;;;23.15;20.75;;;;;;;3.42;88.63;100587.88;5007074;28;20033;-67
2021/12/05 16:51:37;;;;;;;43.67;38.42;;;;;;;3.42;88.66;100585.31;5008617;28;20036;-66
2021/12/05 16:54:35;;;;;;;78.57;66.82;;;;;;;3.51;88.68;100587.38;5002344;28;20025;-67
2021/12/05 16:57:09;;;;;;;43.78;38.10;;;;;;;3.44;88.78;100591.16;4978399;28;20050;-66
2021/12/05 16:59:38;;;;;;;25.98;23.27;;;;;;;3.42;88.51;100593.84;5010059;28;20388;-67
2021/12/05 17:02:25;;;;;;;22.67;20.35;;;;;;;3.48;88.75;100600.34;4991915;28;20482;-66
2021/12/05 17:05:06;;;;;;;24.45;22.05;;;;;;;3.42;88.82;100598.13;5010102;28;20053;-66
2021/12/05 17:07:55;;;;;;;20.77;18.58;;;;;;;3.43;88.37;100607.47;5010953;28;20045;-67
2021/12/05 17:10:20;;;;;;;17.55;15.85;;;;;;;3.42;88.10;100618.66;5009014;28;20100;-68
2021/12/05 17:12:47;;;;;;;18.20;16.30;;;;;;;3.41;88.03;100622.13;5009463;28;20109;-68
2021/12/05 17:21:47;;;;;;;15.00;13.60;;;;;;;3.43;88.08;100636.50;4975118;28;20057;-67
2021/12/05 17:24:16;;;;;;;14.18;12.77;;;;;;;3.38;88.50;100643.63;5192403;23;20053;-67
2021/12/05 17:27:04;;;;;;;12.38;11.18;;;;;;;3.41;88.26;100645.19;5011448;28;20029;-67
2021/12/05 17:32:24;;;;;;;12.93;11.73;;;;;;;3.41;88.22;100663.16;4979471;28;20047;-64
2021/12/05 17:34:57;;;;;;;14.63;13.23;;;;;;;3.36;87.73;100665.13;5166228;23;20105;-67
2021/12/05 17:57:19;;;;;;;21.27;19.17;;;;;;;3.32;88.07;100709.75;4986469;28;20502;-67
2021/12/05 18:03:10;;;;;;;18.35;16.58;;;;;;;3.35;88.31;100727.56;5189985;23;20437;-63
2021/12/05 18:05:45;;;;;;;15.80;14.23;;;;;;;3.31;88.11;100720.94;4993990;28;20026;-63
2021/12/05 18:08:15;;;;;;;14.07;12.73;;;;;;;3.29;87.86;100725.31;4991171;28;20041;-63
2021/12/05 18:10:48;;;;;;;14.52;13.02;;;;;;;3.29;87.95;100720.19;4993583;28;20030;-63
2021/12/05 18:27:49;;;;;;;14.18;12.77;;;;;;;3.32;87.75;100755.91;4945491;29;20046;-63
2021/12/05 18:30:17;;;;;;;12.95;11.73;;;;;;;3.25;87.92;100739.19;4942269;28;20474;-65
2021/12/05 18:35:18;;;;;;;13.85;12.32;;;;;;;3.28;87.65;100755.25;5034909;23;20383;-65
2021/12/05 18:37:46;;;;;;;13.63;12.23;;;;;;;3.31;87.95;100769.63;4972977;28;20385;-65
2021/12/05 18:40:12;;;;;;;13.70;12.35;;;;;;;3.25;88.02;100769.97;4985703;28;20038;-65
2021/12/05 18:46:29;;;;;;;14.32;12.93;;;;;;;3.34;89.00;100784.88;4995018;28;20061;-65
2021/12/05 18:51:30;;;;;;;14.88;13.48;;;;;;;3.29;88.40;100797.09;5077871;23;20446;-63
2021/12/05 18:53:56;;;;;;;15.02;13.55;;;;;;;3.29;89.02;100797.09;4984825;28;20105;-64
2021/12/05 18:56:22;;;;;;;15.73;13.60;;;;;;;3.28;89.18;100801.41;4983953;28;20170;-64
2021/12/05 18:58:47;;;;;;;17.10;15.30;;;;;;;3.26;89.11;100799.81;4986815;28;20529;-64
2021/12/05 19:06:49;;;;;;;15.52;13.95;;;;;;;3.31;89.48;100810.66;4981462;28;20093;-64
2021/12/05 19:11:55;;;;;;;15.98;14.48;;;;;;;3.23;89.40;100813.63;4979953;28;20034;-64
2021/12/05 19:14:25;;;;;;;16.77;15.15;;;;;;;3.24;89.45;100833.22;4982669;28;20042;-63
2021/12/05 19:16:55;;;;;;;17.02;15.32;;;;;;;3.23;89.56;100835.84;4984507;28;20039;-63
2021/12/05 19:19:21;;;;;;;16.15;14.65;;;;;;;3.23;89.73;100843.53;4984275;28;20077;-63
2021/12/05 19:21:47;;;;;;;19.02;17.15;;;;;;;3.22;89.66;100844.47;4981176;28;20422;-63
2021/12/05 19:24:14;;;;;;;21.50;19.30;;;;;;;3.20;89.89;100842.78;4982750;28;20494;-64
2021/12/05 19:26:41;;;;;;;24.47;21.87;;;;;;;3.20;89.84;100840.22;4969551;28;20030;-63